Time;durP1;ratioP1;P1;durP2;ratioP2;P2;SDS_P1;SDS_P2;PMS_P1;PMS_P2;Temp;Humidity;BMP_temperature;BMP_pressure;BME280_temperature;BME280_humidity;BME280_pressure;Samples;Min_cycle;Max_cycle;Signal;HPM_P1;HPM_P2
2023/04/22 00:00:37;;;;;;;23.63;6.68;;;20.60;48.30;;;;;;5013433;28;20123;-74
2023/04/22 00:03:03;;;;;;;13.82;6.40;;;20.60;46.90;;;;;;5028094;28;20391;-73
2023/04/22 00:05:30;;;;;;;22.13;6.05;;;20.60;48.70;;;;;;5019094;28;20033;-73
2023/04/22 00:07:56;;;;;;;10.93;6.03;;;20.70;49.10;;;;;;5030882;28;20033;-73
2023/04/22 00:10:21;;;;;;;16.55;5.85;;;20.70;49.50;;;;;;5013326;28;20029;-73
2023/04/22 00:12:47;;;;;;;8.70;5.55;;;20.70;48.50;;;;;;5030922;28;20517;-73
2023/04/22 00:15:13;;;;;;;12.77;6.18;;;20.70;48.40;;;;;;5013055;28;20112;-73
2023/04/22 00:17:39;;;;;;;11.45;5.70;;;20.70;48.40;;;;;;5030433;28;20044;-74
2023/04/22 00:20:06;;;;;;;9.73;5.45;;;20.70;49.10;;;;;;5045782;28;20033;-74
2023/04/22 00:22:32;;;;;;;12.07;5.72;;;20.80;48.80;;;;;;5032698;28;20025;-75
2023/04/22 00:24:58;;;;;;;15.18;5.57;;;20.80;48.90;;;;;;5032417;28;20556;-75
2023/04/22 00:27:24;;;;;;;13.50;6.57;;;20.80;49.10;;;;;;5050475;28;20395;-75
2023/04/22 00:29:49;;;;;;;12.73;6.13;;;20.80;49.20;;;;;;5032587;28;20087;-73
2023/04/22 00:32:15;;;;;;;12.13;6.05;;;20.80;49.90;;;;;;5032773;28;20399;-74
2023/04/22 00:34:41;;;;;;;12.32;5.20;;;20.80;49.60;;;;;;5050441;28;20033;-74
2023/04/22 00:37:07;;;;;;;11.98;5.70;;;20.80;49.70;;;;;;5050227;28;20116;-75
2023/04/22 00:39:33;;;;;;;15.70;5.22;;;20.80;49.70;;;;;;5050759;28;20036;-73
2023/04/22 00:42:00;;;;;;;10.40;5.57;;;20.80;50.30;;;;;;5032576;28;20419;-74
2023/04/22 00:44:27;;;;;;;9.68;5.45;;;20.80;50.40;;;;;;5015887;28;20040;-74
2023/04/22 00:46:53;;;;;;;9.18;5.40;;;20.80;50.00;;;;;;5053402;28;20398;-74
2023/04/22 00:49:19;;;;;;;15.13;5.43;;;20.80;49.80;;;;;;5025240;28;20022;-74
2023/04/22 00:51:45;;;;;;;9.60;5.70;;;20.80;51.20;;;;;;5015585;28;20029;-74
2023/04/22 00:54:11;;;;;;;14.55;5.55;;;20.80;51.20;;;;;;5029953;28;20029;-73
2023/04/22 00:56:38;;;;;;;16.17;5.68;;;20.90;52.10;;;;;;5029528;28;20034;-73
2023/04/22 00:59:03;;;;;;;15.40;5.28;;;20.80;51.50;;;;;;5014820;28;20033;-73
2023/04/22 01:01:30;;;;;;;8.98;5.25;;;20.90;50.80;;;;;;5016565;28;20546;-73
2023/04/22 01:03:57;;;;;;;13.05;5.63;;;20.90;50.00;;;;;;5029414;28;20014;-73
2023/04/22 01:06:23;;;;;;;13.60;5.25;;;20.80;51.60;;;;;;5016081;28;20091;-74
2023/04/22 01:08:49;;;;;;;12.38;5.53;;;20.80;50.30;;;;;;5016790;28;20026;-74
2023/04/22 01:11:15;;;;;;;15.77;5.18;;;20.80;50.60;;;;;;5014910;28;20403;-73
2023/04/22 01:13:41;;;;;;;15.80;5.55;;;20.80;51.00;;;;;;5032240;28;20029;-73
2023/04/22 01:16:08;;;;;;;14.63;5.88;;;20.80;51.00;;;;;;5006991;28;20040;-73
2023/04/22 01:18:35;;;;;;;13.60;5.38;;;20.80;50.80;;;;;;5013163;28;20117;-73
2023/04/22 01:21:02;;;;;;;14.02;5.65;;;20.80;51.00;;;;;;5027491;28;20026;-73
2023/04/22 01:23:28;;;;;;;13.65;5.63;;;20.80;51.40;;;;;;5027076;28;20036;-74
2023/04/22 01:25:57;;;;;;;12.70;5.53;;;20.80;50.90;;;;;;5009845;28;20029;-73
2023/04/22 01:28:23;;;;;;;12.60;5.28;;;20.80;50.90;;;;;;5029070;28;20388;-73
2023/04/22 01:30:49;;;;;;;11.13;5.43;;;20.80;50.90;;;;;;4995663;28;20037;-73
2023/04/22 01:33:15;;;;;;;9.48;5.35;;;20.80;51.20;;;;;;5002594;28;20036;-74
2023/04/22 01:35:41;;;;;;;13.18;5.45;;;20.70;50.70;;;;;;5026556;28;20458;-74
2023/04/22 01:38:09;;;;;;;9.43;5.38;;;20.70;51.40;;;;;;5032266;28;20048;-73
2023/04/22 01:40:37;;;;;;;10.10;5.30;;;20.70;50.90;;;;;;5033603;28;20030;-73
2023/04/22 01:43:04;;;;;;;10.45;5.20;;;20.80;51.50;;;;;;5015758;28;20037;-73
2023/04/22 01:45:30;;;;;;;10.63;4.97;;;20.80;51.30;;;;;;5012062;28;20153;-73
2023/04/22 01:47:56;;;;;;;12.45;5.32;;;20.70;51.50;;;;;;5011871;28;20029;-73
2023/04/22 01:50:22;;;;;;;8.10;4.65;;;20.80;51.70;;;;;;4998973;28;20037;-73
2023/04/22 01:52:49;;;;;;;12.82;5.85;;;20.70;52.00;;;;;;5015273;28;20536;-74
2023/04/22 01:55:15;;;;;;;10.50;5.45;;;20.80;51.60;;;;;;5015126;28;20037;-73
2023/04/22 01:57:42;;;;;;;13.10;5.90;;;20.80;50.90;;;;;;5014919;28;20026;-73
2023/04/22 02:00:09;;;;;;;18.30;5.00;;;20.80;51.30;;;;;;5015292;28;20072;-74
2023/04/22 02:02:38;;;;;;;11.73;4.85;;;20.80;51.60;;;;;;5032908;28;20491;-73
2023/04/22 02:05:06;;;;;;;9.40;4.95;;;20.80;50.80;;;;;;4999034;28;20025;-73
2023/04/22 02:07:32;;;;;;;11.25;5.22;;;20.80;50.70;;;;;;5032963;28;20034;-74
2023/04/22 02:09:58;;;;;;;10.82;5.43;;;20.70;51.00;;;;;;5032836;28;20041;-73
2023/04/22 02:12:24;;;;;;;10.45;5.30;;;20.80;50.70;;;;;;5032745;28;20048;-74
2023/04/22 02:14:49;;;;;;;9.50;4.72;;;20.80;51.10;;;;;;5014657;28;20080;-73
2023/04/22 02:17:17;;;;;;;9.93;4.90;;;20.70;51.00;;;;;;5032629;28;20113;-73
2023/04/22 02:19:45;;;;;;;8.77;4.65;;;20.70;50.80;;;;;;5014336;28;20041;-73
2023/04/22 02:22:10;;;;;;;10.85;5.53;;;20.70;51.00;;;;;;5014916;28;20037;-73
2023/04/22 02:24:36;;;;;;;9.23;5.00;;;20.70;51.10;;;;;;5030909;28;20087;-73
2023/04/22 02:27:02;;;;;;;11.70;5.40;;;20.70;51.00;;;;;;4982933;28;20033;-73
2023/04/22 02:29:31;;;;;;;12.13;5.43;;;20.70;51.30;;;;;;5031223;28;20677;-73
2023/04/22 02:31:58;;;;;;;10.15;4.88;;;20.80;52.00;;;;;;5014799;28;20542;-73
2023/04/22 02:34:25;;;;;;;9.50;4.72;;;20.70;52.20;;;;;;5014485;28;20029;-73
2023/04/22 02:36:52;;;;;;;11.00;4.43;;;20.80;52.40;;;;;;5014623;28;20033;-73
2023/04/22 02:39:19;;;;;;;9.93;4.97;;;20.80;51.70;;;;;;5014330;28;20049;-73
2023/04/22 02:41:45;;;;;;;11.40;4.85;;;20.70;52.60;;;;;;5014611;28;20041;-73
2023/04/22 02:44:14;;;;;;;13.43;5.45;;;20.80;52.00;;;;;;4997712;28;20040;-73
2023/04/22 02:46:40;;;;;;;8.75;4.90;;;20.80;52.50;;;;;;4998520;28;20025;-73
2023/04/22 02:49:06;;;;;;;9.85;5.15;;;20.80;51.50;;;;;;5014483;28;20415;-73
2023/04/22 02:51:32;;;;;;;7.95;4.80;;;20.70;52.60;;;;;;5014473;28;20116;-73
2023/04/22 02:53:59;;;;;;;7.13;4.75;;;20.70;52.60;;;;;;5010741;28;20038;-73
2023/04/22 02:56:26;;;;;;;12.40;5.15;;;20.80;51.70;;;;;;4994653;28;20092;-73
2023/04/22 02:58:52;;;;;;;8.07;5.25;;;20.80;52.00;;;;;;4994396;28;20091;-74
2023/04/22 03:01:17;;;;;;;9.20;4.50;;;20.80;52.20;;;;;;5012118;28;20492;-73
2023/04/22 03:03:44;;;;;;;8.38;4.75;;;20.80;51.60;;;;;;5010450;28;20339;-74
2023/04/22 03:06:15;;;;;;;8.18;4.88;;;20.80;52.10;;;;;;4994460;28;20030;-73
2023/04/22 03:08:41;;;;;;;9.45;5.10;;;20.80;51.20;;;;;;4993728;28;20032;-73
2023/04/22 03:11:07;;;;;;;9.73;4.80;;;20.80;51.40;;;;;;4997868;28;20096;-73
2023/04/22 03:13:33;;;;;;;7.10;4.30;;;20.70;51.30;;;;;;4993957;28;20054;-73
2023/04/22 03:15:58;;;;;;;8.88;4.40;;;20.70;51.70;;;;;;4977956;28;20034;-74
2023/04/22 03:18:24;;;;;;;7.10;4.57;;;20.80;51.30;;;;;;4994222;28;20030;-74
2023/04/22 03:20:50;;;;;;;11.02;4.70;;;20.70;51.40;;;;;;4994344;28;20029;-74
2023/04/22 03:23:17;;;;;;;9.88;4.63;;;20.70;51.30;;;;;;4994042;28;20029;-74
2023/04/22 03:25:43;;;;;;;7.15;4.35;;;20.70;51.70;;;;;;4993952;28;20033;-74
2023/04/22 03:28:08;;;;;;;6.93;4.38;;;20.70;52.30;;;;;;5001098;28;20553;-74
2023/04/22 03:30:34;;;;;;;11.18;4.70;;;20.70;51.50;;;;;;5030210;28;20029;-74
2023/04/22 03:33:00;;;;;;;7.47;4.28;;;20.70;51.00;;;;;;5030072;28;20511;-74
2023/04/22 03:35:39;;;;;;;8.38;4.63;;;20.70;52.30;;;;;;5029847;28;20064;-74
2023/04/22 03:38:04;;;;;;;11.82;4.28;;;20.70;52.10;;;;;;5031106;28;20026;-74
2023/04/22 03:40:33;;;;;;;9.93;4.63;;;20.70;52.10;;;;;;5029915;28;20056;-74
2023/04/22 03:43:02;;;;;;;8.60;4.87;;;20.70;52.10;;;;;;5013788;28;20407;-74
2023/04/22 03:45:29;;;;;;;9.43;4.72;;;20.70;52.20;;;;;;5013005;28;20178;-74
2023/04/22 03:48:09;;;;;;;8.68;4.50;;;20.70;53.40;;;;;;5013218;28;20037;-74
2023/04/22 03:50:40;;;;;;;7.22;4.40;;;20.70;53.10;;;;;;5015654;28;20029;-74
2023/04/22 03:53:09;;;;;;;8.13;3.95;;;20.70;53.10;;;;;;5029868;28;20033;-74
2023/04/22 03:55:36;;;;;;;12.05;4.57;;;20.80;53.20;;;;;;5029456;28;20040;-74
2023/04/22 03:58:02;;;;;;;9.63;4.38;;;20.70;52.50;;;;;;5031027;28;20026;-74
2023/04/22 04:00:28;;;;;;;8.65;4.85;;;20.70;53.40;;;;;;5029762;28;20404;-73
2023/04/22 04:03:05;;;;;;;8.95;5.22;;;20.80;51.80;;;;;;5034416;28;20030;-74
2023/04/22 04:05:31;;;;;;;9.10;4.97;;;20.70;51.80;;;;;;5030464;28;20025;-73
2023/04/22 04:07:57;;;;;;;9.68;4.53;;;20.70;52.10;;;;;;5013028;28;20053;-74
2023/04/22 04:10:24;;;;;;;7.13;4.40;;;20.70;52.90;;;;;;5013364;28;20056;-73
2023/04/22 04:12:52;;;;;;;11.07;4.75;;;20.70;52.60;;;;;;5029482;28;20109;-73
2023/04/22 04:15:20;;;;;;;8.20;4.93;;;20.80;53.60;;;;;;4996551;28;20112;-73
2023/04/22 04:17:47;;;;;;;7.47;4.35;;;20.70;53.40;;;;;;5029296;28;20033;-74
2023/04/22 04:20:15;;;;;;;8.40;4.50;;;20.70;53.10;;;;;;5032997;28;20442;-73
2023/04/22 04:22:42;;;;;;;6.65;4.50;;;20.70;53.30;;;;;;5019512;28;20024;-74
2023/04/22 04:25:11;;;;;;;10.32;4.28;;;20.80;53.40;;;;;;5019347;28;20027;-73
2023/04/22 04:27:41;;;;;;;7.18;4.45;;;20.80;53.80;;;;;;5019538;28;20489;-74
2023/04/22 04:30:10;;;;;;;10.27;4.93;;;20.70;53.10;;;;;;5035995;28;20025;-73
2023/04/22 04:32:47;;;;;;;13.85;4.90;;;20.70;52.20;;;;;;5019421;28;20402;-73
2023/04/22 04:35:17;;;;;;;7.65;4.35;;;20.70;53.30;;;;;;5019268;28;20032;-73
2023/04/22 04:37:46;;;;;;;11.32;4.70;;;20.70;53.60;;;;;;5018970;28;20106;-74
2023/04/22 04:40:13;;;;;;;8.68;4.38;;;20.70;53.20;;;;;;5035739;28;20052;-74
2023/04/22 04:43:01;;;;;;;7.30;4.32;;;20.70;54.20;;;;;;5036272;28;20053;-74
2023/04/22 04:45:35;;;;;;;8.68;4.80;;;20.70;54.30;;;;;;5019393;28;20033;-74
2023/04/22 04:48:02;;;;;;;7.47;4.20;;;20.70;53.90;;;;;;5002691;28;20421;-74
2023/04/22 04:50:34;;;;;;;9.25;4.45;;;20.80;54.50;;;;;;5019209;28;20041;-74
2023/04/22 04:53:01;;;;;;;9.10;4.88;;;20.70;54.20;;;;;;5015951;28;20061;-74
2023/04/22 04:55:33;;;;;;;10.93;4.28;;;20.70;54.70;;;;;;4999314;28;20030;-74
2023/04/22 04:58:03;;;;;;;8.57;4.65;;;20.80;54.80;;;;;;4999422;28;20524;-74
2023/04/22 05:00:29;;;;;;;17.33;4.70;;;20.80;54.10;;;;;;4999771;28;20392;-74
2023/04/22 05:02:55;;;;;;;9.40;4.82;;;20.80;54.80;;;;;;4982838;28;20050;-74
2023/04/22 05:05:21;;;;;;;7.30;4.53;;;20.80;53.60;;;;;;4999605;28;20033;-75
2023/04/22 05:07:47;;;;;;;9.35;5.00;;;20.80;52.50;;;;;;4999318;28;20037;-74
2023/04/22 05:10:15;;;;;;;7.43;4.35;;;20.80;54.30;;;;;;5003942;28;20063;-74
2023/04/22 05:12:41;;;;;;;8.80;4.55;;;20.80;54.30;;;;;;4999419;28;20507;-74
2023/04/22 05:15:10;;;;;;;10.57;5.20;;;20.80;54.80;;;;;;4999206;28;20032;-73
2023/04/22 05:17:37;;;;;;;16.77;4.85;;;20.80;55.10;;;;;;4999351;28;20140;-74
2023/04/22 05:20:03;;;;;;;9.65;4.65;;;20.80;54.90;;;;;;4999308;28;20022;-73
2023/04/22 05:22:29;;;;;;;9.85;4.40;;;20.80;55.10;;;;;;4999272;28;20022;-73
2023/04/22 05:24:55;;;;;;;23.98;5.03;;;20.80;54.90;;;;;;4999130;28;20643;-73
2023/04/22 05:27:23;;;;;;;14.90;5.38;;;20.80;54.40;;;;;;5008313;28;20032;-73
2023/04/22 05:29:49;;;;;;;7.97;4.45;;;20.80;54.40;;;;;;5035168;28;20041;-73
2023/04/22 05:32:19;;;;;;;14.75;4.50;;;20.80;54.80;;;;;;5032264;28;20034;-73
2023/04/22 05:34:45;;;;;;;8.75;4.80;;;20.80;54.60;;;;;;5015288;28;20033;-73
2023/04/22 05:37:11;;;;;;;8.00;4.65;;;20.80;54.70;;;;;;5032196;28;20069;-73
2023/04/22 05:39:41;;;;;;;10.63;4.80;;;20.80;54.70;;;;;;5032023;28;20487;-73
2023/04/22 05:42:09;;;;;;;9.07;4.70;;;20.80;54.60;;;;;;5015867;28;20399;-74
2023/04/22 05:44:35;;;;;;;10.82;5.25;;;20.80;54.50;;;;;;4998612;28;20037;-73
2023/04/22 05:47:02;;;;;;;9.55;4.40;;;20.80;54.60;;;;;;5015576;28;20025;-73
2023/04/22 05:49:28;;;;;;;6.85;4.15;;;20.80;54.50;;;;;;5015249;28;20388;-74
2023/04/22 05:52:05;;;;;;;9.70;4.53;;;20.80;54.50;;;;;;5033234;28;20021;-74
2023/04/22 05:54:43;;;;;;;9.27;4.82;;;20.90;54.50;;;;;;5031682;28;20104;-73
2023/04/22 05:57:10;;;;;;;10.45;4.50;;;20.90;54.50;;;;;;5033157;28;20538;-73
2023/04/22 05:59:36;;;;;;;9.18;4.60;;;20.90;54.60;;;;;;5031764;28;20034;-73
2023/04/22 06:02:02;;;;;;;9.15;4.93;;;20.90;54.60;;;;;;5031724;28;20021;-73
2023/04/22 06:04:29;;;;;;;11.57;4.65;;;20.90;54.50;;;;;;5031317;28;20714;-75
2023/04/22 06:06:55;;;;;;;8.52;4.43;;;20.90;54.50;;;;;;5033178;28;20025;-74
2023/04/22 06:09:21;;;;;;;9.07;4.80;;;20.90;54.60;;;;;;5015059;28;20029;-74
2023/04/22 06:11:47;;;;;;;10.82;5.15;;;20.90;54.60;;;;;;5033065;28;20252;-74
2023/04/22 06:14:13;;;;;;;10.85;4.78;;;20.90;54.80;;;;;;5031232;28;20105;-74
2023/04/22 06:16:49;;;;;;;9.57;5.30;;;20.90;55.00;;;;;;5015254;28;20120;-73
2023/04/22 06:19:15;;;;;;;10.52;4.68;;;20.90;55.30;;;;;;4998429;28;20029;-74
2023/04/22 06:21:42;;;;;;;11.35;4.78;;;20.90;55.30;;;;;;5031472;28;20037;-74
2023/04/22 06:24:09;;;;;;;10.20;5.35;;;20.90;55.40;;;;;;5014674;28;20350;-73
2023/04/22 06:26:36;;;;;;;7.55;4.53;;;20.90;55.00;;;;;;5015011;28;20032;-74
2023/04/22 06:29:04;;;;;;;9.82;5.03;;;20.90;55.20;;;;;;5014741;28;20084;-74
2023/04/22 06:31:31;;;;;;;9.02;4.60;;;20.90;55.40;;;;;;5014857;28;20048;-74
2023/04/22 06:33:58;;;;;;;11.27;4.75;;;20.90;55.40;;;;;;5014428;28;20067;-75
2023/04/22 06:36:25;;;;;;;13.00;5.35;;;20.90;55.50;;;;;;4998502;28;20069;-75
2023/04/22 06:38:56;;;;;;;9.68;5.07;;;20.90;55.60;;;;;;5014570;28;20035;-75
2023/04/22 06:41:57;;;;;;;10.32;5.05;;;20.90;55.60;;;;;;4974487;28;20038;-74
2023/04/22 06:44:48;;;;;;;8.88;5.05;;;20.90;55.60;;;;;;5012190;28;20036;-74
2023/04/22 06:47:21;;;;;;;10.23;5.00;;;20.90;55.60;;;;;;5014707;28;20113;-74
2023/04/22 06:49:52;;;;;;;10.05;4.78;;;20.90;55.70;;;;;;5014434;28;20036;-74
2023/04/22 06:52:22;;;;;;;11.95;5.30;;;20.90;55.70;;;;;;5010961;28;20030;-74
2023/04/22 06:54:50;;;;;;;11.60;4.57;;;20.90;55.80;;;;;;4994660;28;20465;-74
2023/04/22 06:57:15;;;;;;;12.13;5.32;;;21.00;55.90;;;;;;4978743;28;20041;-74
2023/04/22 06:59:41;;;;;;;10.60;4.90;;;21.00;55.90;;;;;;4994479;28;20380;-74
2023/04/22 07:02:07;;;;;;;11.98;5.13;;;21.00;56.10;;;;;;4994731;28;20110;-74
2023/04/22 07:04:36;;;;;;;9.38;5.00;;;21.00;56.10;;;;;;5009943;28;20033;-74
2023/04/22 07:07:02;;;;;;;9.60;5.10;;;21.00;56.10;;;;;;4994535;28;20449;-74
2023/04/22 07:09:28;;;;;;;10.00;5.28;;;21.00;56.10;;;;;;5004055;28;20133;-74
2023/04/22 07:11:56;;;;;;;8.82;4.97;;;21.00;55.90;;;;;;4998091;28;20032;-74
2023/04/22 07:14:25;;;;;;;15.73;5.43;;;21.00;56.00;;;;;;5030144;28;20033;-74
2023/04/22 07:16:51;;;;;;;12.70;5.05;;;21.00;56.00;;;;;;5031642;28;20033;-75
2023/04/22 07:19:17;;;;;;;8.18;4.80;;;21.00;56.10;;;;;;5031492;28;20529;-75
2023/04/22 07:21:42;;;;;;;10.25;5.00;;;21.00;56.20;;;;;;5031485;28;20080;-75
2023/04/22 07:24:12;;;;;;;12.90;5.60;;;21.10;56.20;;;;;;5031308;28;20029;-74
2023/04/22 07:26:42;;;;;;;9.82;4.95;;;21.10;56.20;;;;;;5031158;28;20040;-75
2023/04/22 07:29:08;;;;;;;8.43;4.88;;;21.10;56.30;;;;;;5013939;28;20496;-75
2023/04/22 07:31:37;;;;;;;8.65;5.03;;;21.10;56.20;;;;;;5031290;28;20025;-73
2023/04/22 07:34:03;;;;;;;9.30;4.80;;;21.10;56.20;;;;;;5030354;28;20030;-74
2023/04/22 07:36:28;;;;;;;8.43;4.80;;;21.10;56.20;;;;;;5029916;28;20699;-74
2023/04/22 07:38:54;;;;;;;8.32;4.85;;;21.10;56.30;;;;;;5029877;28;20464;-74
2023/04/22 07:41:20;;;;;;;10.98;5.13;;;21.10;56.40;;;;;;5031083;28;20032;-74
2023/04/22 07:43:46;;;;;;;10.98;4.55;;;21.10;56.40;;;;;;5013455;28;20060;-74
2023/04/22 07:46:12;;;;;;;10.38;4.78;;;21.10;56.30;;;;;;5013490;28;20399;-74
2023/04/22 07:48:37;;;;;;;10.77;4.40;;;21.10;56.30;;;;;;5030992;28;20396;-74
2023/04/22 07:51:03;;;;;;;9.88;4.72;;;21.10;56.20;;;;;;5030978;28;20052;-74
2023/04/22 07:53:29;;;;;;;11.02;5.53;;;21.10;56.20;;;;;;5031026;28;20036;-73
2023/04/22 07:55:55;;;;;;;9.18;5.13;;;21.10;56.20;;;;;;5030798;28;20243;-73
2023/04/22 07:58:21;;;;;;;11.75;5.20;;;21.10;56.20;;;;;;5030752;28;20029;-73
2023/04/22 08:00:47;;;;;;;8.23;4.60;;;21.10;56.30;;;;;;4996877;28;20021;-73
2023/04/22 08:03:13;;;;;;;8.88;5.20;;;21.20;56.30;;;;;;5029757;28;20361;-73
2023/04/22 08:05:38;;;;;;;12.43;5.00;;;21.20;56.30;;;;;;5012421;28;20546;-73
2023/04/22 08:08:05;;;;;;;9.85;5.13;;;21.20;56.30;;;;;;5030072;28;20104;-74
2023/04/22 08:10:31;;;;;;;10.82;5.28;;;21.20;56.30;;;;;;5013422;28;20128;-73
2023/04/22 08:12:56;;;;;;;9.43;5.20;;;21.20;56.40;;;;;;5030109;28;20116;-74
2023/04/22 08:15:22;;;;;;;11.82;5.60;;;21.20;56.30;;;;;;5012274;28;20029;-73
2023/04/22 08:17:48;;;;;;;9.82;5.22;;;21.20;55.60;;;;;;5028922;28;20025;-73
2023/04/22 08:20:15;;;;;;;8.90;5.20;;;21.20;56.30;;;;;;5030824;28;20568;-74
2023/04/22 08:22:44;;;;;;;9.02;5.10;;;21.20;56.30;;;;;;5023269;28;20513;-73
2023/04/22 08:25:10;;;;;;;11.90;5.33;;;21.20;56.30;;;;;;5029820;28;20450;-73
2023/04/22 08:27:37;;;;;;;10.10;5.15;;;21.20;56.40;;;;;;5012847;28;20040;-73
2023/04/22 08:30:05;;;;;;;9.07;5.15;;;21.20;56.50;;;;;;5030677;28;20057;-73
2023/04/22 08:32:30;;;;;;;9.55;5.45;;;21.20;56.50;;;;;;5028875;28;20042;-74
2023/04/22 08:34:58;;;;;;;9.20;5.63;;;21.20;56.40;;;;;;5029716;28;20039;-73
2023/04/22 08:37:26;;;;;;;11.63;6.03;;;21.20;56.50;;;;;;5012689;28;20116;-74
2023/04/22 08:39:52;;;;;;;8.43;4.93;;;21.20;56.50;;;;;;5030721;28;20091;-73
2023/04/22 08:42:19;;;;;;;12.48;5.57;;;21.20;56.60;;;;;;5022746;28;20021;-73
2023/04/22 08:44:45;;;;;;;10.45;5.82;;;21.20;56.70;;;;;;5035766;28;20029;-74
2023/04/22 08:47:14;;;;;;;16.65;5.93;;;21.20;56.90;;;;;;5033004;28;20151;-74
2023/04/22 08:49:41;;;;;;;11.60;6.40;;;21.20;57.00;;;;;;5029895;28;20120;-73
2023/04/22 08:52:08;;;;;;;20.80;6.10;;;21.20;57.00;;;;;;5027180;28;20246;-73
2023/04/22 08:54:36;;;;;;;8.73;5.72;;;21.30;57.20;;;;;;5009404;28;20022;-74
2023/04/22 08:57:03;;;;;;;11.60;6.05;;;21.30;57.10;;;;;;5009732;28;20022;-73
2023/04/22 08:59:30;;;;;;;13.43;5.18;;;21.20;57.00;;;;;;5009165;28;20045;-74
2023/04/22 09:01:57;;;;;;;13.35;5.53;;;21.30;57.10;;;;;;5021861;28;20139;-73
2023/04/22 09:04:23;;;;;;;14.15;6.03;;;21.30;57.10;;;;;;5029900;28;20476;-74
2023/04/22 09:06:49;;;;;;;14.75;5.97;;;21.30;57.10;;;;;;5031874;28;20029;-75
2023/04/22 09:09:15;;;;;;;12.93;5.75;;;21.30;57.10;;;;;;5032730;28;20036;-75
2023/04/22 09:11:42;;;;;;;11.75;5.78;;;21.30;56.50;;;;;;5012978;28;20480;-75
2023/04/22 09:14:07;;;;;;;10.32;5.32;;;21.30;57.00;;;;;;5018321;28;20044;-75
2023/04/22 09:16:41;;;;;;;13.38;6.05;;;21.30;56.50;;;;;;5013092;28;20464;-75
2023/04/22 09:19:10;;;;;;;8.75;5.43;;;21.30;55.90;;;;;;5018534;28;20061;-75
2023/04/22 09:21:36;;;;;;;;;;;21.20;56.90;;;;;;5028426;28;20082;-74
2023/04/22 09:24:02;;;;;;;14.77;5.80;;;21.30;57.30;;;;;;5049563;28;20321;-74
2023/04/22 09:26:30;;;;;;;16.80;6.18;;;21.30;57.40;;;;;;5042241;28;20064;-74
2023/04/22 09:28:57;;;;;;;11.50;5.78;;;21.30;57.20;;;;;;5041840;28;20032;-75
2023/04/22 09:31:24;;;;;;;11.52;5.75;;;21.30;56.60;;;;;;5022340;28;20065;-73
2023/04/22 09:33:53;;;;;;;14.20;5.50;;;21.30;57.40;;;;;;5037507;28;20368;-74
2023/04/22 09:36:24;;;;;;;12.32;5.88;;;21.30;57.30;;;;;;5019767;28;20406;-78
2023/04/22 09:38:52;;;;;;;18.60;5.80;;;21.30;57.50;;;;;;5020935;28;20109;-78
2023/04/22 09:41:29;;;;;;;16.17;5.97;;;21.30;56.50;;;;;;5032026;28;20025;-75
2023/04/22 09:43:59;;;;;;;13.05;6.20;;;21.30;54.30;;;;;;5032714;28;20022;-78
2023/04/22 09:46:26;;;;;;;10.63;5.18;;;21.40;52.20;;;;;;5028795;28;20025;-76
2023/04/22 09:48:54;;;;;;;15.38;5.22;;;21.40;51.70;;;;;;5003406;28;20083;-77
2023/04/22 09:51:20;;;;;;;15.32;6.03;;;21.40;51.70;;;;;;5032968;28;20045;-78
2023/04/22 09:54:04;;;;;;;12.43;6.40;;;21.40;51.80;;;;;;5031785;28;20110;-77
2023/04/22 09:56:50;;;;;;;13.25;6.55;;;21.50;50.80;;;;;;5031538;28;20033;-79
2023/04/22 09:59:28;;;;;;;12.80;7.13;;;21.60;52.40;;;;;;5032050;28;20087;-76
2023/04/22 10:02:05;;;;;;;12.50;6.45;;;21.60;50.40;;;;;;5032889;28;20025;-80
2023/04/22 10:04:31;;;;;;;30.77;6.07;;;21.60;49.60;;;;;;4998083;28;20061;-77
2023/04/22 10:06:57;;;;;;;18.73;5.53;;;21.60;50.10;;;;;;5015887;28;20771;-78
2023/04/22 10:09:27;;;;;;;17.17;5.57;;;21.60;48.00;;;;;;5012939;28;20057;-78
2023/04/22 10:11:53;;;;;;;;;;;21.60;47.80;;;;;;5015202;28;20032;-77
2023/04/22 10:14:23;;;;;;;10.70;5.00;;;21.60;47.10;;;;;;5032445;28;19956;-80
2023/04/22 10:16:53;;;;;;;11.43;5.22;;;21.60;46.00;;;;;;5015970;28;20099;-79
2023/04/22 10:19:21;;;;;;;11.10;5.50;;;21.50;46.10;;;;;;5031475;28;20028;-77
2023/04/22 10:21:51;;;;;;;25.48;5.75;;;21.60;45.80;;;;;;5032298;28;20028;-80
2023/04/22 10:24:18;;;;;;;12.40;4.70;;;21.50;48.00;;;;;;5032151;28;20021;-81
2023/04/22 10:26:47;;;;;;;11.52;5.13;;;21.50;45.80;;;;;;5013766;28;20065;-77
2023/04/22 10:29:16;;;;;;;13.20;5.47;;;21.60;47.10;;;;;;5032911;28;20025;-78
2023/04/22 10:31:43;;;;;;;15.23;5.57;;;21.60;45.80;;;;;;5014731;28;20124;-78
2023/04/22 10:34:13;;;;;;;22.70;5.78;;;21.60;45.30;;;;;;5013707;28;20034;-83
2023/04/22 10:37:00;;;;;;;13.25;5.22;;;21.60;46.30;;;;;;5011699;28;20030;-78
2023/04/22 10:39:28;;;;;;;18.13;6.03;;;21.60;46.80;;;;;;4997040;28;20044;-85
2023/04/22 10:42:05;;;;;;;18.30;6.82;;;21.70;46.20;;;;;;5014504;28;20026;-83
2023/04/22 10:44:47;;;;;;;13.50;6.43;;;21.70;44.50;;;;;;4995037;28;20030;-83
2023/04/22 10:47:29;;;;;;;15.10;6.35;;;21.70;44.80;;;;;;4995349;28;20120;-83
2023/04/22 10:50:25;;;;;;;13.48;6.43;;;21.70;45.60;;;;;;5010815;28;20049;-82
2023/04/22 10:52:57;;;;;;;12.75;6.68;;;21.70;45.00;;;;;;5030300;28;20132;-83
2023/04/22 10:55:24;;;;;;;15.63;6.90;;;21.60;45.50;;;;;;5008396;28;20527;-86
2023/04/22 10:57:51;;;;;;;12.23;6.95;;;21.70;46.70;;;;;;4995223;28;20044;-85
2023/04/22 11:00:26;;;;;;;16.27;6.45;;;21.70;50.40;;;;;;5014384;28;20035;-84
2023/04/22 11:03:07;;;;;;;12.80;6.55;;;21.80;47.60;;;;;;4982911;28;20037;-86
2023/04/22 11:05:34;;;;;;;47.60;8.68;;;21.80;49.90;;;;;;4988957;28;20021;-88
2023/04/22 11:08:27;;;;;;;27.42;7.63;;;21.90;53.40;;;;;;4997192;28;20033;-87
2023/04/22 11:11:07;;;;;;;18.67;8.73;;;21.90;52.60;;;;;;5011368;28;20048;-85
2023/04/22 11:13:33;;;;;;;14.32;7.32;;;21.80;54.70;;;;;;5031850;28;20056;-85
2023/04/22 11:15:59;;;;;;;39.65;7.88;;;21.80;52.30;;;;;;5014408;28;20037;-86
2023/04/22 11:18:26;;;;;;;13.27;6.40;;;21.80;52.90;;;;;;5014639;28;20488;-86
2023/04/22 11:20:53;;;;;;;12.95;6.55;;;21.80;47.10;;;;;;4998683;28;20116;-85
2023/04/22 11:23:22;;;;;;;15.30;6.25;;;21.80;51.60;;;;;;4998403;28;20368;-83
2023/04/22 11:25:53;;;;;;;13.18;5.93;;;21.70;50.90;;;;;;4997648;28;20391;-86
2023/04/22 11:28:21;;;;;;;9.32;5.65;;;21.80;49.70;;;;;;4998184;28;20033;-85
2023/04/22 11:30:47;;;;;;;10.82;5.55;;;21.80;48.40;;;;;;5000532;28;20107;-84
2023/04/22 11:33:15;;;;;;;12.45;5.95;;;21.80;50.00;;;;;;4997457;28;20036;-85
2023/04/22 11:35:41;;;;;;;12.23;5.97;;;21.70;46.50;;;;;;4996618;28;20094;-85
2023/04/22 11:38:08;;;;;;;13.10;6.18;;;21.80;48.60;;;;;;4997536;28;20045;-86
2023/04/22 11:40:36;;;;;;;12.07;6.43;;;21.70;48.20;;;;;;4995004;28;20068;-84
2023/04/22 11:43:03;;;;;;;13.07;5.43;;;21.70;48.50;;;;;;4971841;28;20115;-85
2023/04/22 11:45:30;;;;;;;12.90;5.78;;;21.80;48.00;;;;;;4976904;28;20041;-86
2023/04/22 11:47:57;;;;;;;15.48;5.70;;;21.80;46.10;;;;;;5010968;28;20041;-84
2023/04/22 11:50:25;;;;;;;12.40;5.20;;;21.80;46.90;;;;;;4994424;28;20033;-82
2023/04/22 11:52:57;;;;;;;15.15;5.95;;;21.70;47.70;;;;;;5022136;28;20482;-78
2023/04/22 11:55:34;;;;;;;15.13;5.60;;;21.70;46.60;;;;;;5025227;28;20061;-79
2023/04/22 11:58:06;;;;;;;26.83;5.30;;;21.70;47.50;;;;;;5032459;28;20030;-78
2023/04/22 12:00:40;;;;;;;12.27;5.40;;;21.70;42.70;;;;;;5029286;28;20383;-78
2023/04/22 12:03:07;;;;;;;11.38;4.78;;;21.70;46.20;;;;;;5011425;28;20025;-78
2023/04/22 12:05:41;;;;;;;13.07;5.40;;;21.60;45.50;;;;;;4983449;28;20037;-79
2023/04/22 12:08:12;;;;;;;11.57;5.40;;;21.70;45.40;;;;;;5012651;28;20503;-80
2023/04/22 12:10:50;;;;;;;14.77;5.93;;;21.70;45.00;;;;;;5030486;28;20119;-81
2023/04/22 12:13:20;;;;;;;13.30;5.93;;;21.60;43.90;;;;;;5029210;28;20029;-80
2023/04/22 12:15:47;;;;;;;10.55;5.80;;;21.60;45.90;;;;;;5003667;28;20029;-74
2023/04/22 12:18:13;;;;;;;8.90;4.60;;;21.50;43.80;;;;;;5027585;28;20041;-74
2023/04/22 12:20:40;;;;;;;8.75;5.32;;;21.50;45.20;;;;;;5011028;28;20420;-74
2023/04/22 12:23:13;;;;;;;14.15;5.38;;;21.70;46.60;;;;;;5011376;28;20061;-75
2023/04/22 12:25:39;;;;;;;9.50;5.18;;;21.60;46.70;;;;;;5013085;28;20509;-75
2023/04/22 12:28:05;;;;;;;12.13;5.38;;;21.60;46.60;;;;;;5030401;28;20404;-75
